createdAt,value
2018-04-30T00:01:36.975Z,69.20
2018-04-30T00:04:04.936Z,69.20
2018-04-30T00:06:32.856Z,69.50
2018-04-30T00:09:00.795Z,70.30
2018-04-30T00:11:30.117Z,70.30
2018-04-30T00:14:03.217Z,70.80
2018-04-30T00:16:31.096Z,71.50
2018-04-30T00:18:59.217Z,71.10
2018-04-30T00:21:27.019Z,71.20
2018-04-30T00:23:54.816Z,71.30
2018-04-30T00:26:22.781Z,71.10
2018-04-30T00:28:50.516Z,71.50
2018-04-30T00:31:18.335Z,71.40
2018-04-30T00:33:46.179Z,71.40
2018-04-30T00:36:14.176Z,71.10
2018-04-30T00:38:42.835Z,72.60
2018-04-30T00:41:10.695Z,72.50
2018-04-30T00:43:38.555Z,72.10
2018-04-30T00:46:06.436Z,71.80
2018-04-30T00:48:34.655Z,71.60
2018-04-30T00:51:02.435Z,71.40
2018-04-30T00:53:30.475Z,71.20
2018-04-30T00:55:58.502Z,71.20
2018-04-30T00:58:26.735Z,71.20
2018-04-30T01:00:54.740Z,71.00
2018-04-30T01:03:22.684Z,71.70
2018-04-30T01:05:51.338Z,72.30
2018-04-30T01:08:19.378Z,72.30
2018-04-30T01:10:47.238Z,71.80
2018-04-30T01:13:15.380Z,72.10
2018-04-30T01:15:43.219Z,73.10
2018-04-30T01:18:11.058Z,71.90
2018-04-30T01:20:38.938Z,71.50
2018-04-30T01:23:07.218Z,71.40
2018-04-30T01:25:36.498Z,72.20
2018-04-30T01:28:04.399Z,72.20
2018-04-30T01:30:32.399Z,73.00
2018-04-30T01:33:00.481Z,73.80
2018-04-30T01:35:28.340Z,74.00
2018-04-30T01:37:56.141Z,74.10
2018-04-30T01:40:24.161Z,73.90
2018-04-30T01:42:51.928Z,74.20
2018-04-30T01:45:20.780Z,72.90
2018-04-30T01:47:48.819Z,72.90
2018-04-30T01:50:16.619Z,73.60
2018-04-30T01:52:44.594Z,73.20
2018-04-30T01:55:12.960Z,72.80
2018-04-30T01:57:40.859Z,73.30
2018-04-30T02:00:09.322Z,74.00
2018-04-30T02:02:37.759Z,73.90
2018-04-30T02:05:05.599Z,74.30
2018-04-30T02:07:33.479Z,74.50
2018-04-30T02:10:01.420Z,74.60
2018-04-30T02:12:29.994Z,74.30
2018-04-30T02:14:57.858Z,74.20
2018-04-30T02:17:25.937Z,74.30
2018-04-30T02:19:53.737Z,73.90
2018-04-30T02:22:22.561Z,73.60
2018-04-30T02:24:50.840Z,73.70
2018-04-30T02:27:18.817Z,74.20
2018-04-30T02:29:46.858Z,73.80
2018-04-30T02:32:14.698Z,73.60
2018-04-30T02:34:42.781Z,73.40
2018-04-30T02:37:10.860Z,73.60
2018-04-30T02:39:38.738Z,73.50
2018-04-30T02:42:06.575Z,73.60
2018-04-30T02:44:34.476Z,73.60
2018-04-30T02:47:02.817Z,73.30
2018-04-30T02:49:30.715Z,73.40
2018-04-30T02:51:58.856Z,74.10
2018-04-30T02:54:26.855Z,74.50
2018-04-30T02:56:54.716Z,73.60
2018-04-30T02:59:22.715Z,73.40
2018-04-30T03:01:50.614Z,73.60
2018-04-30T03:04:18.774Z,73.80
2018-04-30T03:06:46.725Z,73.50
2018-04-30T03:09:14.775Z,73.60
2018-04-30T03:11:42.934Z,73.20
2018-04-30T03:14:10.775Z,73.60
2018-04-30T03:16:38.874Z,73.20
2018-04-30T03:19:06.774Z,72.80
2018-04-30T03:21:34.714Z,72.60
2018-04-30T03:24:02.641Z,72.80
2018-04-30T03:26:30.714Z,72.90
2018-04-30T03:28:58.654Z,73.00
2018-04-30T03:31:28.397Z,73.00
2018-04-30T03:33:56.354Z,73.30
2018-04-30T03:36:24.534Z,73.10
2018-04-30T03:38:52.934Z,74.20
2018-04-30T03:41:20.834Z,73.30
2018-04-30T03:43:49.014Z,73.30
2018-04-30T03:46:17.215Z,73.30
2018-04-30T03:48:45.114Z,73.10
2018-04-30T03:51:13.434Z,73.20
2018-04-30T03:53:41.413Z,73.30
2018-04-30T03:56:09.394Z,72.90
2018-04-30T03:58:38.274Z,74.70
2018-04-30T04:01:18.201Z,73.90
2018-04-30T04:03:57.722Z,73.40
2018-04-30T04:06:37.275Z,73.50
2018-04-30T04:09:05.934Z,72.90
2018-04-30T04:11:33.855Z,74.80
2018-04-30T04:14:01.817Z,75.60
2018-04-30T04:16:29.835Z,75.40
2018-04-30T04:18:59.097Z,74.50
2018-04-30T04:21:27.175Z,74.50
2018-04-30T04:23:55.125Z,72.70
2018-04-30T04:26:23.735Z,70.80
2018-04-30T04:28:51.735Z,70.80
2018-04-30T04:31:19.757Z,69.00
2018-04-30T04:33:48.477Z,64.70
2018-04-30T04:36:16.395Z,64.70
2018-04-30T04:38:44.198Z,63.90
2018-04-30T04:41:12.217Z,58.90
2018-04-30T04:43:40.056Z,58.90
2018-04-30T04:46:08.036Z,58.50
2018-04-30T04:48:36.698Z,56.10
2018-04-30T04:51:04.860Z,56.10
2018-04-30T04:53:32.895Z,53.40
2018-04-30T04:56:00.775Z,54.60
2018-04-30T04:58:28.715Z,53.30
2018-04-30T05:00:56.598Z,49.70
2018-04-30T05:03:24.498Z,52.50
2018-04-30T05:05:52.438Z,54.70
2018-04-30T05:08:20.378Z,53.90
2018-04-30T05:10:48.303Z,55.60
2018-04-30T05:13:16.119Z,54.80
2018-04-30T05:15:44.059Z,57.00
2018-04-30T05:18:12.419Z,55.80
2018-04-30T05:20:40.440Z,57.70
2018-04-30T05:23:08.978Z,56.90
2018-04-30T05:25:37.459Z,56.50
2018-04-30T05:28:05.751Z,56.80
2018-04-30T05:30:33.758Z,57.60
2018-04-30T05:33:02.378Z,57.20
2018-04-30T05:35:30.159Z,57.90
2018-04-30T05:37:57.557Z,54.10
2018-04-30T05:40:25.359Z,50.70
2018-04-30T05:42:53.218Z,47.50
2018-04-30T05:45:20.599Z,45.80
2018-04-30T05:47:48.118Z,45.10
2018-04-30T05:50:16.081Z,42.50
2018-04-30T05:52:47.729Z,41.50
2018-04-30T05:55:21.180Z,42.10
2018-04-30T05:57:54.610Z,41.60
2018-04-30T06:00:22.369Z,41.70
2018-04-30T06:02:50.417Z,45.50
2018-04-30T06:05:18.655Z,46.60
2018-04-30T06:07:46.536Z,48.50
2018-04-30T06:10:14.295Z,50.40
2018-04-30T06:12:42.154Z,51.30
2018-04-30T06:15:09.936Z,52.60
2018-04-30T06:17:37.825Z,54.10
2018-04-30T06:20:05.588Z,53.30
2018-04-30T06:22:33.495Z,56.70
2018-04-30T06:25:02.113Z,54.30
2018-04-30T06:27:30.374Z,54.40
2018-04-30T06:29:58.495Z,56.90
2018-04-30T06:32:26.454Z,56.70
2018-04-30T06:34:54.495Z,56.10
2018-04-30T06:37:22.434Z,54.90
2018-04-30T06:39:51.134Z,54.50
2018-04-30T06:42:19.194Z,54.50
2018-04-30T06:44:46.934Z,54.10
2018-04-30T06:47:14.815Z,52.20
2018-04-30T06:49:42.656Z,52.80
2018-04-30T06:52:10.734Z,52.50
2018-04-30T06:54:38.614Z,54.30
2018-04-30T06:57:06.715Z,53.40
2018-04-30T06:59:34.654Z,54.60
2018-04-30T07:02:02.664Z,54.10
2018-04-30T07:04:30.621Z,54.20
2018-04-30T07:06:58.558Z,52.20
2018-04-30T07:09:26.593Z,54.10
2018-04-30T07:11:55.219Z,54.30
2018-04-30T07:14:23.206Z,54.30
2018-04-30T07:16:51.203Z,52.90
2018-04-30T07:19:20.478Z,52.30
2018-04-30T07:21:48.258Z,51.70
2018-04-30T07:24:16.777Z,53.50
2018-04-30T07:26:45.359Z,53.40
2018-04-30T07:29:13.180Z,53.50
2018-04-30T07:31:40.980Z,53.70
2018-04-30T07:34:08.697Z,52.70
2018-04-30T07:36:36.437Z,54.00
2018-04-30T07:39:04.397Z,54.90
2018-04-30T07:41:32.376Z,53.50
2018-04-30T07:44:00.120Z,52.50
2018-04-30T07:46:27.864Z,53.30
2018-04-30T07:48:55.997Z,51.00
2018-04-30T07:51:23.784Z,54.60
2018-04-30T07:53:51.578Z,52.30
2018-04-30T07:56:19.417Z,48.80
2018-04-30T07:58:48.837Z,49.40
2018-04-30T08:01:16.696Z,50.00
2018-04-30T08:03:44.637Z,50.40
2018-04-30T08:06:12.916Z,52.30
2018-04-30T08:08:41.116Z,46.90
2018-04-30T08:11:09.017Z,45.30
2018-04-30T08:13:36.936Z,46.40
2018-04-30T08:16:04.723Z,45.00
2018-04-30T08:18:32.557Z,43.40
2018-04-30T08:21:00.495Z,43.80
2018-04-30T08:23:28.376Z,45.90
2018-04-30T08:25:56.116Z,45.40
2018-04-30T08:28:23.912Z,44.10
2018-04-30T08:30:51.738Z,43.90
2018-04-30T08:33:19.496Z,43.60
2018-04-30T08:35:47.619Z,44.30
2018-04-30T08:38:15.380Z,45.10
2018-04-30T08:40:43.275Z,44.20
2018-04-30T08:43:11.995Z,44.50
2018-04-30T08:45:40.235Z,44.30
2018-04-30T08:48:07.982Z,44.30
2018-04-30T08:50:35.976Z,44.00
2018-04-30T08:53:03.699Z,46.10
2018-04-30T08:55:31.423Z,43.20
2018-04-30T08:57:59.236Z,44.30
2018-04-30T09:00:27.023Z,44.00
2018-04-30T09:02:54.856Z,44.00
2018-04-30T09:05:22.587Z,44.40
2018-04-30T09:07:50.321Z,43.40
2018-04-30T09:10:18.186Z,44.50
2018-04-30T09:12:46.016Z,44.30
2018-04-30T09:15:13.818Z,43.70
2018-04-30T09:17:41.719Z,43.80
2018-04-30T09:20:09.495Z,42.50
2018-04-30T09:22:37.302Z,41.80
2018-04-30T09:25:05.113Z,42.50
2018-04-30T09:27:33.049Z,42.10
2018-04-30T09:30:01.038Z,41.30
2018-04-30T09:32:29.219Z,42.10
2018-04-30T09:34:57.164Z,42.30
2018-04-30T09:37:25.395Z,41.90
2018-04-30T09:39:53.459Z,43.30
2018-04-30T09:42:21.319Z,42.00
2018-04-30T09:44:49.081Z,42.50
2018-04-30T09:47:16.826Z,43.30
2018-04-30T09:49:44.586Z,43.00
2018-04-30T09:52:12.492Z,43.40
2018-04-30T09:54:40.232Z,43.50
2018-04-30T09:57:08.018Z,43.90
2018-04-30T09:59:35.758Z,45.00
2018-04-30T10:02:03.735Z,42.90
2018-04-30T10:04:31.756Z,43.70
2018-04-30T10:06:59.615Z,43.60
2018-04-30T10:09:27.377Z,42.60
2018-04-30T10:11:55.159Z,42.60
2018-04-30T10:14:22.951Z,42.80
2018-04-30T10:16:50.876Z,42.50
2018-04-30T10:19:19.536Z,43.20
2018-04-30T10:21:47.456Z,43.30
2018-04-30T10:24:15.235Z,44.70
2018-04-30T10:26:43.095Z,43.40
2018-04-30T10:29:14.798Z,44.00
2018-04-30T10:31:48.308Z,45.20
2018-04-30T10:34:16.098Z,45.80
2018-04-30T10:36:43.823Z,44.90
2018-04-30T10:39:11.620Z,44.30
2018-04-30T10:41:39.399Z,44.70
2018-04-30T10:44:07.281Z,43.20
2018-04-30T10:46:35.056Z,43.40
2018-04-30T10:49:02.975Z,44.60
2018-04-30T10:51:30.869Z,45.80
2018-04-30T10:53:58.656Z,45.50
2018-04-30T10:56:26.396Z,44.50
2018-04-30T10:58:54.218Z,44.10
2018-04-30T11:01:22.083Z,44.70
2018-04-30T11:03:49.995Z,44.20
2018-04-30T11:06:17.775Z,45.40
2018-04-30T11:08:45.656Z,45.60
2018-04-30T11:11:15.895Z,44.80
2018-04-30T11:13:50.536Z,46.30
2018-04-30T11:16:21.981Z,45.00
2018-04-30T11:18:54.842Z,43.60
2018-04-30T11:21:31.322Z,43.40
2018-04-30T11:24:04.922Z,44.30
2018-04-30T11:26:36.591Z,44.40
2018-04-30T11:29:04.419Z,44.50
2018-04-30T11:31:32.401Z,45.10
2018-04-30T11:34:00.347Z,45.40
2018-04-30T11:36:28.177Z,45.80
2018-04-30T11:38:56.217Z,46.20
2018-04-30T11:41:23.955Z,44.90
2018-04-30T11:43:51.738Z,44.60
2018-04-30T11:46:19.496Z,45.70
2018-04-30T11:48:47.327Z,44.50
2018-04-30T11:51:14.710Z,44.50
2018-04-30T11:53:42.618Z,44.10
2018-04-30T11:56:10.435Z,44.20
2018-04-30T11:58:39.102Z,47.00
2018-04-30T12:01:06.818Z,47.00
2018-04-30T12:03:35.376Z,44.70
2018-04-30T12:06:03.097Z,44.50
2018-04-30T12:08:30.866Z,45.90
2018-04-30T12:10:59.022Z,46.40
2018-04-30T12:13:26.816Z,45.30
2018-04-30T12:15:54.583Z,45.30
2018-04-30T12:18:22.444Z,43.90
2018-04-30T12:20:50.243Z,45.40
2018-04-30T12:23:18.904Z,44.00
2018-04-30T12:25:48.144Z,44.00
2018-04-30T12:28:16.062Z,42.90
2018-04-30T12:30:43.980Z,43.30
2018-04-30T12:33:12.676Z,43.70
2018-04-30T12:35:40.516Z,43.70
2018-04-30T12:38:08.296Z,42.70
2018-04-30T12:40:36.337Z,44.00
2018-04-30T12:43:04.223Z,42.00
2018-04-30T12:45:32.004Z,43.00
2018-04-30T12:47:59.776Z,42.50
2018-04-30T12:50:28.176Z,41.60
2018-04-30T12:52:56.077Z,41.30
2018-04-30T12:55:23.916Z,40.40
2018-04-30T12:57:51.636Z,40.60
2018-04-30T13:00:19.355Z,40.50
2018-04-30T13:02:47.165Z,41.20
2018-04-30T13:05:14.941Z,40.60
2018-04-30T13:07:42.822Z,40.00
2018-04-30T13:10:10.760Z,41.10
2018-04-30T13:12:38.656Z,41.40
2018-04-30T13:15:07.038Z,41.50
2018-04-30T13:17:35.077Z,40.00
2018-04-30T13:20:02.782Z,39.60
2018-04-30T13:22:30.737Z,39.20
2018-04-30T13:24:58.636Z,39.20
2018-04-30T13:27:26.645Z,40.10
2018-04-30T13:29:54.296Z,40.10
2018-04-30T13:32:21.509Z,40.90
2018-04-30T13:34:48.789Z,40.70
2018-04-30T13:37:17.336Z,39.00
2018-04-30T13:39:45.280Z,39.90
2018-04-30T13:42:13.250Z,39.50
2018-04-30T13:44:40.593Z,39.70
2018-04-30T13:47:08.132Z,40.00
2018-04-30T13:49:35.541Z,40.00
2018-04-30T13:52:03.612Z,40.50
2018-04-30T13:54:31.627Z,40.40
2018-04-30T13:56:59.622Z,40.60
2018-04-30T13:59:28.278Z,40.30
2018-04-30T14:01:56.401Z,40.10
2018-04-30T14:04:24.255Z,40.50
2018-04-30T14:06:52.056Z,40.20
2018-04-30T14:09:19.995Z,41.30
2018-04-30T14:11:47.935Z,41.30
2018-04-30T14:14:15.378Z,40.90
2018-04-30T14:16:43.357Z,40.40
2018-04-30T14:19:12.114Z,40.20
2018-04-30T14:21:39.874Z,40.20
2018-04-30T14:26:40.159Z,39.60
2018-04-30T14:29:08.099Z,40.00
2018-04-30T14:31:37.321Z,39.80
2018-04-30T14:34:05.359Z,41.00
2018-04-30T14:36:33.339Z,39.90
2018-04-30T14:39:01.099Z,40.60
2018-04-30T14:41:29.060Z,40.50
2018-04-30T14:43:57.740Z,41.20
2018-04-30T14:46:25.301Z,40.50
2018-04-30T14:48:55.435Z,39.70
2018-04-30T14:51:23.366Z,41.20
2018-04-30T14:53:51.233Z,39.60
2018-04-30T14:56:18.674Z,40.10
2018-04-30T14:58:47.285Z,39.90
2018-04-30T15:01:15.205Z,39.90
2018-04-30T15:03:43.055Z,39.70
2018-04-30T15:06:11.198Z,39.40
2018-04-30T15:08:39.036Z,39.50
2018-04-30T15:11:07.454Z,40.70
2018-04-30T15:13:36.215Z,39.30
2018-04-30T15:16:04.177Z,39.80
2018-04-30T15:18:33.175Z,40.30
2018-04-30T15:21:01.025Z,40.30
2018-04-30T15:23:28.876Z,40.30
2018-04-30T15:25:56.716Z,40.80
2018-04-30T15:28:24.219Z,40.60
2018-04-30T15:30:51.976Z,40.20
2018-04-30T15:33:20.734Z,40.00
2018-04-30T15:35:48.721Z,40.00
2018-04-30T15:38:16.418Z,38.90
2018-04-30T15:40:44.559Z,38.50
2018-04-30T15:43:12.483Z,38.60
2018-04-30T15:45:40.393Z,38.90
2018-04-30T15:48:09.917Z,38.00
2018-04-30T15:50:37.806Z,37.70
2018-04-30T15:53:05.779Z,38.90
2018-04-30T15:55:35.155Z,37.50
2018-04-30T15:58:02.593Z,37.40
2018-04-30T16:00:30.500Z,37.20
2018-04-30T16:02:58.982Z,37.60
2018-04-30T16:05:26.817Z,37.60
2018-04-30T16:07:54.720Z,37.40
2018-04-30T16:10:22.557Z,37.80
2018-04-30T16:12:50.417Z,38.10
2018-04-30T16:15:19.930Z,37.30
2018-04-30T16:17:52.125Z,36.90
2018-04-30T16:20:20.513Z,36.40
2018-04-30T16:22:48.280Z,37.00
2018-04-30T16:25:16.057Z,36.70
2018-04-30T16:27:44.149Z,36.60
2018-04-30T16:30:12.062Z,37.20
2018-04-30T16:32:39.936Z,36.80
2018-04-30T16:35:07.774Z,36.10
2018-04-30T16:37:35.895Z,36.50
2018-04-30T16:40:03.858Z,36.10
2018-04-30T16:42:31.876Z,35.80
2018-04-30T16:44:59.623Z,35.90
2018-04-30T16:47:27.464Z,35.10
2018-04-30T16:49:55.219Z,35.80
2018-04-30T16:52:23.156Z,35.20
2018-04-30T16:54:51.077Z,35.70
2018-04-30T16:57:19.655Z,35.20
2018-04-30T16:59:47.616Z,35.10
2018-04-30T17:02:15.927Z,35.40
2018-04-30T17:04:49.721Z,36.00
2018-04-30T17:07:24.601Z,35.80
2018-04-30T17:09:59.483Z,36.00
2018-04-30T17:12:34.045Z,35.60
2018-04-30T17:15:05.407Z,35.60
2018-04-30T17:17:40.601Z,35.20
2018-04-30T17:20:14.577Z,35.80
2018-04-30T17:22:48.589Z,36.30
2018-04-30T17:25:23.644Z,36.20
2018-04-30T17:27:58.206Z,36.00
2018-04-30T17:30:32.478Z,35.80
2018-04-30T17:33:07.642Z,36.10
2018-04-30T17:35:44.122Z,35.60
2018-04-30T17:38:19.322Z,35.90
2018-04-30T17:40:55.164Z,36.30
2018-04-30T17:43:29.722Z,36.00
2018-04-30T17:46:04.602Z,36.70
2018-04-30T17:48:39.166Z,36.90
2018-04-30T17:51:06.977Z,36.80
2018-04-30T17:53:34.959Z,37.00
2018-04-30T17:56:03.217Z,37.70
2018-04-30T17:58:31.085Z,37.60
2018-04-30T18:00:59.015Z,37.10
2018-04-30T18:03:26.955Z,37.60
2018-04-30T18:05:55.055Z,37.40
2018-04-30T18:08:28.734Z,37.40
2018-04-30T18:11:03.160Z,37.10
2018-04-30T18:13:37.402Z,36.80
2018-04-30T18:16:13.240Z,37.10
2018-04-30T18:18:50.693Z,37.00
2018-04-30T18:21:26.521Z,37.20
2018-04-30T18:24:01.720Z,37.30
2018-04-30T18:26:36.702Z,37.40
2018-04-30T18:29:04.717Z,37.10
2018-04-30T18:31:32.793Z,37.70
2018-04-30T18:34:00.759Z,37.70
2018-04-30T18:36:29.132Z,37.70
2018-04-30T18:38:56.932Z,37.90
2018-04-30T18:41:24.792Z,38.60
2018-04-30T18:43:52.734Z,38.10
2018-04-30T18:46:20.673Z,38.60
2018-04-30T18:48:48.914Z,38.50
2018-04-30T18:51:16.977Z,38.80
2018-04-30T18:53:44.853Z,38.70
2018-04-30T18:56:12.672Z,39.10
2018-04-30T18:58:40.892Z,39.10
2018-04-30T19:01:08.904Z,39.70
2018-04-30T19:03:36.717Z,39.80
2018-04-30T19:06:04.577Z,40.20
2018-04-30T19:08:39.484Z,40.10
2018-04-30T19:11:14.043Z,40.50
2018-04-30T19:13:50.209Z,40.50
2018-04-30T19:16:27.005Z,40.80
2018-04-30T19:19:01.565Z,41.00
2018-04-30T19:21:36.515Z,42.00
2018-04-30T19:24:12.924Z,41.70
2018-04-30T19:26:47.811Z,42.00
2018-04-30T19:29:23.326Z,42.10
2018-04-30T19:31:57.245Z,42.50
2018-04-30T19:34:31.876Z,42.50
2018-04-30T19:37:07.981Z,42.60
2018-04-30T19:39:36.114Z,42.60
2018-04-30T19:42:04.374Z,42.80
2018-04-30T19:44:32.255Z,42.80
2018-04-30T19:47:00.435Z,42.90
2018-04-30T19:49:28.342Z,42.90
2018-04-30T19:51:57.074Z,43.30
2018-04-30T19:54:25.056Z,43.30
2018-04-30T19:56:53.015Z,43.50
2018-04-30T19:59:21.215Z,43.80
2018-04-30T20:01:49.254Z,44.00
2018-04-30T20:04:19.037Z,44.10
2018-04-30T20:06:47.056Z,44.20
2018-04-30T20:09:15.056Z,44.70
2018-04-30T20:11:43.055Z,44.70
2018-04-30T20:14:10.744Z,45.20
2018-04-30T20:16:38.538Z,45.10
2018-04-30T20:19:06.255Z,45.20
2018-04-30T20:21:34.076Z,45.50
2018-04-30T20:24:02.717Z,45.70
2018-04-30T20:26:30.639Z,45.70
2018-04-30T20:28:58.577Z,46.40
2018-04-30T20:31:26.400Z,46.20
2018-04-30T20:33:54.395Z,46.70
2018-04-30T20:36:23.540Z,46.70
2018-04-30T20:38:51.338Z,46.40
2018-04-30T20:41:19.223Z,46.80
2018-04-30T20:43:47.045Z,47.30
2018-04-30T20:46:15.057Z,46.60
2018-04-30T20:48:43.736Z,47.00
2018-04-30T20:51:11.678Z,47.00
2018-04-30T20:53:39.557Z,47.50
2018-04-30T20:56:07.480Z,46.70
2018-04-30T20:58:35.416Z,47.80
2018-04-30T21:01:03.400Z,46.50
2018-04-30T21:03:31.238Z,46.80
2018-04-30T21:05:59.179Z,46.70
2018-04-30T21:08:27.098Z,46.70
2018-04-30T21:10:54.998Z,47.20
2018-04-30T21:13:23.001Z,47.50
2018-04-30T21:15:50.879Z,48.00
2018-04-30T21:18:18.805Z,48.10
2018-04-30T21:25:50.756Z,48.20
2018-04-30T21:28:18.740Z,48.50
2018-04-30T21:30:46.695Z,48.40
2018-04-30T21:33:15.935Z,48.70
2018-04-30T21:35:43.958Z,49.10
2018-04-30T21:38:12.019Z,49.30
2018-04-30T21:40:40.015Z,49.40
2018-04-30T21:43:07.738Z,48.70
2018-04-30T21:45:35.597Z,47.80
2018-04-30T21:48:03.438Z,49.00
2018-04-30T21:50:31.354Z,49.90
2018-04-30T21:52:59.129Z,49.80
2018-04-30T21:55:26.962Z,48.90
2018-04-30T21:57:54.730Z,50.20
2018-04-30T22:00:28.389Z,49.90
2018-04-30T22:02:56.253Z,47.20
2018-04-30T22:05:23.998Z,50.50
2018-04-30T22:07:52.375Z,51.40
2018-04-30T22:10:20.238Z,50.70
2018-04-30T22:12:47.995Z,50.70
2018-04-30T22:15:15.852Z,49.10
2018-04-30T22:17:43.676Z,51.00
2018-04-30T22:20:11.418Z,51.00
2018-04-30T22:22:39.182Z,51.00
2018-04-30T22:25:06.935Z,50.80
2018-04-30T22:27:34.716Z,50.70
2018-04-30T22:30:02.496Z,50.80
2018-04-30T22:32:30.265Z,50.90
2018-04-30T22:34:58.177Z,50.80
2018-04-30T22:37:26.056Z,49.40
2018-04-30T22:39:54.015Z,48.00
2018-04-30T22:42:21.976Z,48.70
2018-04-30T22:44:49.875Z,49.90
2018-04-30T22:49:51.577Z,48.80
2018-04-30T22:54:51.655Z,50.50
2018-04-30T22:57:19.576Z,51.90
2018-04-30T22:59:47.435Z,52.50
2018-04-30T23:02:16.056Z,55.50
2018-04-30T23:04:43.974Z,55.50
2018-04-30T23:07:11.882Z,55.40
2018-04-30T23:09:39.774Z,55.20
2018-04-30T23:12:07.661Z,55.20
2018-04-30T23:14:35.693Z,55.60
2018-04-30T23:17:03.865Z,54.90
2018-04-30T23:19:31.633Z,54.90
2018-04-30T23:22:00.014Z,54.80
2018-04-30T23:24:29.014Z,58.30
2018-04-30T23:26:56.894Z,58.40
2018-04-30T23:29:24.994Z,56.80
2018-04-30T23:31:52.814Z,55.60
2018-04-30T23:34:20.635Z,55.40
2018-04-30T23:36:48.535Z,55.00
2018-04-30T23:39:16.356Z,55.10
2018-04-30T23:41:44.276Z,54.20
2018-04-30T23:44:12.134Z,53.90
2018-04-30T23:46:40.275Z,54.10
2018-04-30T23:49:08.335Z,54.00
2018-04-30T23:51:36.275Z,53.70
2018-04-30T23:54:04.134Z,54.50
2018-04-30T23:56:31.894Z,53.80
2018-04-30T23:58:59.814Z,55.30
